createdAt,value
2023-01-03T00:00:25.204Z,229.22
2023-01-03T00:05:25.031Z,229.22
2023-01-03T00:10:24.975Z,229.22
2023-01-03T00:15:24.901Z,230.82
2023-01-03T00:20:24.825Z,229.54
2023-01-03T00:25:24.753Z,231.95
2023-01-03T00:30:24.709Z,233.09
2023-01-03T00:35:24.615Z,234.07
2023-01-03T00:40:24.571Z,235.40
2023-01-03T00:45:25.891Z,235.74
2023-01-03T00:50:24.426Z,236.24
2023-01-03T00:55:24.366Z,236.41
2023-01-03T01:00:24.306Z,237.94
2023-01-03T01:05:44.062Z,238.11
2023-01-03T01:10:36.462Z,238.62
2023-01-03T01:15:36.470Z,239.48
2023-01-03T01:20:36.328Z,239.65
2023-01-03T01:25:36.284Z,240.00
2023-01-03T01:30:36.182Z,239.48
2023-01-03T01:35:36.109Z,239.48
2023-01-03T01:40:36.059Z,240.52
2023-01-03T01:45:36.022Z,241.22
2023-01-03T01:50:35.908Z,240.87
2023-01-03T01:55:35.865Z,240.00
2023-01-03T02:00:35.781Z,241.22
2023-01-03T02:05:35.715Z,240.35
2023-01-03T02:10:35.663Z,240.87
2023-01-03T02:15:35.604Z,241.93
2023-01-03T02:20:35.512Z,244.06
2023-01-03T02:25:35.474Z,244.42
2023-01-03T02:30:35.367Z,245.69
2023-01-03T02:35:35.330Z,245.51
2023-01-03T02:40:35.243Z,245.51
2023-01-03T02:45:35.209Z,246.78
2023-01-03T02:50:35.114Z,246.97
2023-01-03T02:55:35.060Z,246.24
2023-01-03T03:00:34.999Z,248.26
2023-01-03T03:05:34.929Z,251.65
2023-01-03T03:10:34.847Z,251.65
2023-01-03T03:15:34.786Z,251.84
2023-01-03T03:20:34.722Z,250.89
2023-01-03T03:25:34.664Z,250.32
2023-01-03T03:30:34.578Z,249.57
2023-01-03T03:35:34.528Z,248.08
2023-01-03T03:40:34.446Z,249.01
2023-01-03T03:45:34.427Z,248.26
2023-01-03T03:50:34.358Z,249.01
2023-01-03T03:55:34.260Z,249.57
2023-01-03T04:00:34.166Z,249.57
2023-01-03T04:05:34.115Z,249.19
2023-01-03T04:10:37.636Z,248.45
2023-01-03T04:15:33.961Z,246.60
2023-01-03T04:20:33.897Z,247.15
2023-01-03T04:25:33.836Z,246.60
2023-01-03T04:30:33.795Z,247.52
2023-01-03T04:35:33.702Z,246.60
2023-01-03T04:40:33.638Z,246.78
2023-01-03T04:45:33.600Z,246.42
2023-01-03T04:50:33.507Z,246.97
2023-01-03T04:55:36.423Z,246.97
2023-01-03T05:00:33.380Z,248.45
2023-01-03T05:05:33.278Z,249.01
2023-01-03T05:10:33.251Z,251.08
2023-01-03T05:15:47.767Z,250.70
2023-01-03T05:20:40.134Z,252.23
2023-01-03T05:25:40.090Z,253.77
2023-01-03T05:30:40.000Z,253.57
2023-01-03T05:35:40.002Z,253.38
2023-01-03T05:40:41.563Z,253.77
2023-01-03T05:45:39.899Z,255.92
2023-01-03T05:50:39.792Z,254.55
2023-01-03T05:55:39.643Z,253.77
2023-01-03T06:00:39.629Z,254.94
2023-01-03T06:05:44.596Z,257.11
2023-01-03T06:10:40.460Z,257.71
2023-01-03T06:15:39.414Z,260.34
2023-01-03T06:20:39.360Z,261.16
2023-01-03T06:25:39.309Z,260.95
2023-01-03T06:30:39.202Z,264.07
2023-01-03T06:35:39.161Z,263.02
2023-01-03T06:40:45.443Z,264.07
2023-01-03T06:45:40.017Z,265.33
2023-01-03T06:50:38.947Z,266.40
2023-01-03T06:55:38.881Z,267.69
2023-01-03T07:00:38.802Z,268.56
2023-01-03T07:05:38.751Z,267.26
2023-01-03T07:10:38.660Z,270.09
2023-01-03T07:15:38.635Z,269.65
2023-01-03T07:20:38.512Z,270.97
2023-01-03T07:25:38.488Z,272.30
2023-01-03T07:30:38.388Z,272.30
2023-01-03T07:35:38.353Z,273.20
2023-01-03T07:40:38.266Z,275.01
2023-01-03T07:45:38.211Z,276.16
2023-01-03T07:50:38.137Z,277.54
2023-01-03T07:55:38.083Z,279.65
2023-01-03T08:00:37.987Z,279.88
2023-01-03T08:05:37.960Z,281.31
2023-01-03T08:10:37.864Z,279.65
2023-01-03T08:15:37.873Z,280.83
2023-01-03T08:20:37.844Z,279.18
2023-01-03T08:25:37.673Z,280.12
2023-01-03T08:30:37.596Z,279.18
2023-01-03T08:35:37.549Z,276.39
2023-01-03T08:40:41.815Z,273.88
2023-01-03T08:45:38.434Z,270.53
2023-01-03T08:50:37.327Z,268.34
2023-01-03T08:55:37.273Z,269.43
2023-01-03T09:00:37.183Z,268.34
2023-01-03T09:05:37.158Z,266.40
2023-01-03T09:10:39.676Z,265.55
2023-01-03T09:15:37.994Z,260.75
2023-01-03T09:20:36.932Z,256.71
2023-01-03T09:25:37.643Z,252.23
2023-01-03T09:30:36.820Z,245.32
2023-01-03T09:35:36.693Z,233.91
2023-01-03T09:40:36.665Z,224.27
2023-01-03T09:45:36.642Z,214.13
2023-01-03T09:50:57.336Z,207.70
2023-01-03T09:55:37.463Z,204.12
2023-01-03T10:00:36.419Z,196.86
2023-01-03T10:05:36.311Z,191.96
2023-01-03T10:10:36.247Z,186.56
2023-01-03T10:15:36.190Z,182.24
2023-01-03T10:20:36.125Z,178.19
2023-01-03T10:25:36.091Z,173.61
2023-01-03T10:30:36.012Z,170.80
2023-01-03T10:35:35.940Z,168.08
2023-01-03T10:40:35.868Z,163.68
2023-01-03T10:45:41.614Z,164.15
2023-01-03T10:50:36.721Z,167.58
2023-01-03T10:55:35.631Z,171.84
2023-01-03T11:00:35.628Z,175.41
2023-01-03T11:05:35.542Z,178.95
2023-01-03T11:10:35.420Z,185.24
2023-01-03T11:15:38.673Z,192.07
2023-01-03T11:20:35.313Z,198.39
2023-01-03T11:25:35.239Z,204.00
2023-01-03T11:30:35.167Z,210.07
2023-01-03T11:35:35.108Z,214.69
2023-01-03T11:40:35.052Z,225.64
2023-01-03T11:45:35.032Z,235.24
2023-01-03T11:50:37.433Z,240.52
2023-01-03T11:55:34.840Z,241.93
2023-01-03T12:00:34.793Z,245.32
2023-01-03T12:05:34.672Z,248.26
2023-01-03T12:10:34.641Z,249.19
2023-01-03T12:15:34.598Z,253.38
2023-01-03T12:20:34.539Z,256.91
2023-01-03T12:25:34.411Z,261.57
2023-01-03T12:30:34.354Z,264.07
2023-01-03T12:35:34.300Z,270.31
2023-01-03T12:40:34.243Z,275.70
2023-01-03T12:45:34.924Z,275.93
2023-01-03T12:50:34.183Z,276.16
2023-01-03T12:55:34.060Z,272.98
2023-01-03T13:00:33.978Z,273.42
2023-01-03T13:05:33.900Z,269.21
2023-01-03T13:10:33.854Z,271.86
2023-01-03T13:15:36.929Z,274.78
2023-01-03T13:20:33.718Z,274.78
2023-01-03T13:25:33.632Z,279.41
2023-01-03T13:30:33.564Z,277.54
2023-01-03T13:35:33.492Z,278.94
2023-01-03T13:41:08.050Z,280.36
2023-01-03T13:45:34.352Z,282.26
2023-01-03T13:50:33.287Z,278.24
2023-01-03T13:55:33.202Z,280.83
2023-01-03T14:00:33.158Z,283.23
2023-01-03T14:05:33.065Z,281.79
2023-01-03T14:10:33.022Z,288.15
2023-01-03T14:15:32.964Z,290.67
2023-01-03T14:20:32.911Z,294.02
2023-01-03T14:25:32.804Z,293.24
2023-01-03T14:30:32.747Z,296.91
2023-01-03T14:35:32.679Z,295.07
2023-01-03T14:40:32.622Z,290.16
2023-01-03T14:45:32.544Z,286.65
2023-01-03T14:50:32.483Z,283.71
2023-01-03T14:55:32.538Z,292.46
2023-01-03T15:00:33.511Z,292.46
2023-01-03T15:05:32.230Z,287.40
2023-01-03T15:10:32.207Z,288.40
2023-01-03T15:15:32.125Z,287.65
2023-01-03T15:20:32.066Z,286.16
2023-01-03T15:25:32.012Z,283.23
2023-01-03T15:30:31.947Z,282.02
2023-01-03T15:35:31.897Z,282.51
2023-01-03T15:40:31.816Z,283.23
2023-01-03T15:45:31.754Z,282.99
2023-01-03T15:50:31.686Z,284.20
2023-01-03T15:55:31.610Z,285.18
2023-01-03T16:00:31.550Z,282.75
2023-01-03T16:05:31.462Z,282.26
2023-01-03T16:10:31.429Z,283.23
2023-01-03T16:15:31.323Z,281.55
2023-01-03T16:20:31.292Z,281.31
2023-01-03T16:25:31.193Z,280.59
2023-01-03T16:30:31.121Z,276.62
2023-01-03T16:35:31.055Z,275.01
2023-01-03T16:40:31.344Z,274.56
2023-01-03T16:45:31.027Z,276.85
2023-01-03T16:50:30.884Z,278.94
2023-01-03T16:55:31.924Z,279.18
2023-01-03T17:00:30.760Z,276.85
2023-01-03T17:05:30.655Z,273.88
2023-01-03T17:10:30.599Z,271.41
2023-01-03T17:15:30.534Z,271.86
2023-01-03T17:20:30.497Z,270.09
2023-01-03T17:25:30.408Z,269.21
2023-01-03T17:30:30.380Z,268.77
2023-01-03T17:35:30.270Z,270.97
2023-01-03T17:40:34.032Z,269.65
2023-01-03T17:45:30.123Z,270.75
2023-01-03T17:50:30.080Z,271.19
2023-01-03T17:55:29.990Z,270.97
2023-01-03T18:00:29.991Z,269.43
2023-01-03T18:05:29.913Z,270.31
2023-01-03T18:10:29.812Z,270.09
2023-01-03T18:15:29.831Z,271.41
2023-01-03T18:20:29.653Z,270.75
2023-01-03T18:25:29.622Z,272.53
2023-01-03T18:30:29.517Z,274.78
2023-01-03T18:35:37.276Z,274.33
2023-01-03T18:40:30.402Z,277.08
2023-01-03T18:45:29.418Z,279.41
2023-01-03T18:50:29.242Z,282.02
2023-01-03T18:55:29.183Z,283.95
2023-01-03T19:00:29.121Z,283.47
2023-01-03T19:05:29.073Z,285.67
2023-01-03T19:10:29.002Z,284.69
2023-01-03T19:15:28.923Z,286.41
2023-01-03T19:20:28.883Z,286.65
2023-01-03T19:25:28.836Z,287.65
2023-01-03T19:30:35.268Z,290.67
2023-01-03T19:35:29.670Z,290.93
2023-01-03T19:40:28.592Z,291.69
2023-01-03T19:45:28.531Z,290.67
2023-01-03T19:50:28.441Z,293.76
2023-01-03T19:55:28.398Z,296.12
2023-01-03T20:00:28.355Z,295.07
2023-01-03T20:05:28.275Z,293.24
2023-01-03T20:10:28.181Z,299.60
2023-01-03T20:15:28.154Z,301.77
2023-01-03T20:20:28.064Z,300.95
2023-01-03T20:25:28.029Z,301.77
2023-01-03T20:30:27.952Z,300.68
2023-01-03T20:40:28.800Z,310.53
2023-01-03T20:45:27.716Z,314.95
2023-01-03T20:50:27.643Z,313.17
2023-01-03T20:55:27.625Z,314.95
2023-01-03T21:00:27.519Z,316.76
2023-01-03T21:05:27.476Z,314.36
2023-01-03T21:10:27.420Z,314.65
2023-01-03T21:15:27.314Z,314.06
2023-01-03T21:20:27.260Z,311.99
2023-01-03T21:25:27.975Z,311.70
2023-01-03T21:30:27.288Z,307.37
2023-01-03T21:35:27.066Z,309.66
2023-01-03T21:40:26.989Z,308.22
2023-01-03T21:45:26.948Z,302.88
2023-01-03T21:50:26.862Z,299.87
2023-01-03T21:55:26.786Z,298.52
2023-01-03T22:00:26.725Z,298.52
2023-01-03T22:05:26.666Z,295.59
2023-01-03T22:10:26.581Z,302.88
2023-01-03T22:15:26.540Z,306.23
2023-01-03T22:20:26.461Z,305.67
2023-01-03T22:25:26.388Z,307.37
2023-01-03T22:30:26.323Z,305.11
2023-01-03T22:35:26.278Z,311.99
2023-01-03T22:40:26.183Z,319.81
2023-01-03T22:45:26.156Z,321.05
2023-01-03T22:50:26.027Z,325.14
2023-01-03T22:55:31.746Z,328.68
2023-01-03T23:00:26.906Z,324.82
2023-01-03T23:05:25.855Z,320.43
2023-01-03T23:10:25.768Z,315.85
2023-01-03T23:15:25.738Z,313.46
2023-01-03T23:20:25.628Z,315.55
2023-01-03T23:25:25.585Z,317.97
2023-01-03T23:30:25.560Z,320.43
2023-01-03T23:35:25.448Z,321.05
2023-01-03T23:40:25.382Z,320.43
2023-01-03T23:45:25.326Z,313.76
2023-01-03T23:50:25.230Z,311.99
2023-01-03T23:55:25.226Z,309.66
